Terminal Aerodrome Forecast
Issued by NWS

Home | Current Version | Previous Version | Text Only | Print | Product List | Glossary On
Versions: 1 2 3 4 5 6 7 8 9 10 11 12 13 14 15 16 17 18 19
469
FTUS43 KMQT 110534
TAFSAW
TAF
KSAW 110534Z 1106/1206 28006KT P6SM BKN025
     FM111300 21005KT 5SM -SHSN OVC030
     FM111500 20005KT 3/4SM -SHSN OVC015
     FM111800 22005KT P6SM VCSH OVC010
     FM112000 27004KT P6SM OVC015
     FM112200 32008KT 4SM -SHSN BKN020
     FM120000 33010KT 6SM -SHSN BKN020
     FM120400 34014G23KT 5SM -SHSN BLSN BKN025=

USA.gov is the U.S. government's official web portal to all federal, state and local government web resources and services.